Time;durP1;ratioP1;P1;durP2;ratioP2;P2;SDS_P1;SDS_P2;PMS_P1;PMS_P2;Temp;Humidity;BMP_temperature;BMP_pressure;BME280_temperature;BME280_humidity;BME280_pressure;Samples;Min_cycle;Max_cycle;Signal;HPM_P1;HPM_P2
2022/07/01 00:00:15;;;;;;;8.30;5.22;;;;;;;20.14;86.55;94983.50;5044134;28;20037;-66
2022/07/01 00:02:42;;;;;;;7.05;5.05;;;;;;;20.04;87.10;94979.13;5031650;28;20040;-66
2022/07/01 00:05:11;;;;;;;6.72;5.18;;;;;;;20.04;87.01;94969.38;5038044;28;20045;-66
2022/07/01 00:07:47;;;;;;;9.60;5.60;;;;;;;19.91;87.48;94975.34;5033321;28;20128;-66
2022/07/01 00:10:14;;;;;;;6.97;5.22;;;;;;;19.93;87.48;94978.50;5037469;28;20128;-66
2022/07/01 00:12:41;;;;;;;7.70;5.25;;;;;;;19.89;87.60;94982.00;5035523;28;20575;-66
2022/07/01 00:15:09;;;;;;;7.47;5.05;;;;;;;19.90;87.54;94988.84;5034553;28;20694;-66
2022/07/01 00:17:36;;;;;;;7.78;5.38;;;;;;;19.93;87.72;94988.28;5037311;28;20128;-66
2022/07/01 00:20:04;;;;;;;5.75;5.18;;;;;;;19.91;87.63;94985.16;5035365;28;20051;-66
2022/07/01 00:22:37;;;;;;;8.40;6.15;;;;;;;19.80;88.26;94973.94;5036844;28;20061;-66
2022/07/01 00:25:04;;;;;;;7.18;5.53;;;;;;;19.74;88.56;94975.09;5038929;28;20041;-67
2022/07/01 00:27:31;;;;;;;5.88;5.28;;;;;;;19.76;88.31;94972.94;5034031;28;20557;-66
2022/07/01 00:29:58;;;;;;;5.47;4.57;;;;;;;19.74;88.62;94985.66;5058778;28;20045;-66
2022/07/01 00:32:25;;;;;;;9.85;5.00;;;;;;;19.72;88.68;94982.47;5038576;28;20072;-66
2022/07/01 00:35:03;;;;;;;14.80;5.93;;;;;;;19.68;89.04;94977.75;5036010;28;20049;-66
2022/07/01 00:37:30;;;;;;;9.50;4.97;;;;;;;19.66;89.10;94979.91;5035160;28;20076;-66
2022/07/01 00:39:56;;;;;;;6.82;5.20;;;;;;;19.60;89.27;94981.03;5038896;28;20044;-66
2022/07/01 00:42:23;;;;;;;10.50;5.20;;;;;;;19.62;89.00;94988.66;5035969;28;20069;-66
2022/07/01 00:44:50;;;;;;;13.00;5.88;;;;;;;19.59;89.16;94984.75;5037385;28;20048;-66
2022/07/01 00:47:17;;;;;;;6.72;4.38;;;;;;;19.56;89.28;94990.59;5033678;28;20037;-66
2022/07/01 00:49:44;;;;;;;10.18;4.45;;;;;;;19.57;88.76;94994.81;5038628;28;20037;-66
2022/07/01 00:52:11;;;;;;;5.68;4.40;;;;;;;19.55;89.57;94991.66;5034516;28;20041;-67
2022/07/01 00:54:40;;;;;;;6.50;5.43;;;;;;;19.53;88.97;94988.50;5035002;28;20057;-66
2022/07/01 00:57:11;;;;;;;6.35;4.85;;;;;;;19.54;89.10;94998.03;5037002;28;20049;-67
2022/07/01 00:59:39;;;;;;;6.78;4.43;;;;;;;19.57;88.87;94991.38;5034552;28;20049;-66
2022/07/01 01:02:08;;;;;;;8.32;4.13;;;;;;;19.56;88.88;94995.09;5034504;28;20045;-66
2022/07/01 01:04:35;;;;;;;8.45;4.68;;;;;;;19.46;89.14;94996.00;5037316;28;20095;-66
2022/07/01 01:07:03;;;;;;;7.75;5.13;;;;;;;19.39;89.59;94996.34;5033299;28;20789;-66
2022/07/01 01:09:30;;;;;;;7.78;5.28;;;;;;;19.41;89.91;94993.41;5033382;28;20052;-66
2022/07/01 01:12:00;;;;;;;7.43;5.55;;;;;;;19.44;89.36;94998.13;5034941;28;20051;-66
2022/07/01 01:14:27;;;;;;;7.47;5.07;;;;;;;19.36;89.79;94985.56;5033558;28;20045;-66
2022/07/01 01:16:54;;;;;;;10.90;5.50;;;;;;;19.46;89.83;94991.53;5036402;28;20485;-66
2022/07/01 01:19:21;;;;;;;10.98;5.78;;;;;;;19.46;89.59;95001.28;5034266;28;20052;-67
2022/07/01 01:21:48;;;;;;;7.97;6.30;;;;;;;19.41;89.91;94998.69;5041234;28;20052;-66
2022/07/01 01:24:15;;;;;;;11.75;7.15;;;;;;;19.35;89.61;95005.13;5034583;28;20072;-66
2022/07/01 01:26:41;;;;;;;13.05;5.72;;;;;;;19.27;90.36;95003.88;5041134;28;20048;-66
2022/07/01 01:29:08;;;;;;;9.20;6.07;;;;;;;19.19;90.69;94997.34;5037715;28;20640;-66
2022/07/01 01:31:35;;;;;;;11.15;6.18;;;;;;;19.08;91.30;95001.16;5044619;28;20041;-66
2022/07/01 01:34:03;;;;;;;11.32;6.05;;;;;;;18.99;91.58;95002.84;5039337;28;20073;-66
2022/07/01 01:36:30;;;;;;;9.20;5.38;;;;;;;18.91;91.68;95001.63;5040880;28;20581;-66
2022/07/01 01:39:00;;;;;;;12.82;6.50;;;;;;;18.86;92.51;95002.44;5039001;28;20044;-66
2022/07/01 01:41:27;;;;;;;29.40;7.30;;;;;;;18.86;92.33;95005.09;5039764;28;20041;-66
2022/07/01 01:43:54;;;;;;;11.30;6.00;;;;;;;18.84;92.49;94996.66;5041086;28;20033;-66
2022/07/01 01:46:21;;;;;;;8.10;5.38;;;;;;;18.84;92.90;94990.59;5034742;28;20041;-66
2022/07/01 01:48:48;;;;;;;9.18;5.60;;;;;;;18.79;93.90;94987.97;5040686;28;20049;-66
2022/07/01 01:51:14;;;;;;;7.50;5.45;;;;;;;18.79;93.99;94994.03;5036422;28;20645;-66
2022/07/01 01:53:41;;;;;;;8.35;4.63;;;;;;;18.76;93.75;94991.94;5040158;28;20122;-66
2022/07/01 01:56:08;;;;;;;10.93;5.75;;;;;;;18.71;94.21;94994.66;5037886;28;20040;-66
2022/07/01 01:58:35;;;;;;;9.68;5.45;;;;;;;18.64;94.69;95002.88;5044708;28;20041;-66
2022/07/01 02:01:07;;;;;;;7.93;5.80;;;;;;;18.56;95.06;95000.06;5038863;28;20399;-66
2022/07/01 02:04:05;;;;;;;11.65;6.05;;;;;;;18.45;96.01;95015.94;5044007;28;20052;-66
2022/07/01 02:06:32;;;;;;;9.70;6.25;;;;;;;18.39;96.97;95017.06;5037630;28;20037;-66
2022/07/01 02:08:59;;;;;;;10.98;5.50;;;;;;;18.35;97.17;95016.03;5043238;28;20049;-66
2022/07/01 02:11:26;;;;;;;8.27;5.43;;;;;;;18.24;97.24;95009.25;5039447;28;20077;-66
2022/07/01 02:14:25;;;;;;;9.18;4.65;;;;;;;18.23;98.04;95007.69;5042484;28;20052;-66
2022/07/01 02:16:52;;;;;;;7.43;5.30;;;;;;;18.12;98.67;95007.75;5041233;28;20053;-67
2022/07/01 02:19:19;;;;;;;20.58;9.70;;;;;;;18.11;99.27;95011.47;5040051;28;20045;-66
2022/07/01 02:21:46;;;;;;;20.75;9.57;;;;;;;18.01;99.75;95008.09;5037096;28;20044;-66
2022/07/01 02:24:13;;;;;;;23.08;10.40;;;;;;;18.02;99.93;95007.81;5039422;28;20037;-66
2022/07/01 02:26:51;;;;;;;21.42;10.80;;;;;;;18.02;100.00;95013.06;5039708;28;20437;-66
2022/07/01 02:29:17;;;;;;;25.85;11.50;;;;;;;17.98;100.00;95012.06;5042419;28;20055;-66
2022/07/01 02:31:44;;;;;;;28.40;15.27;;;;;;;17.95;100.00;95017.88;5039161;28;20044;-66
2022/07/01 02:34:11;;;;;;;33.92;18.10;;;;;;;17.91;100.00;95012.34;5041174;28;20037;-66
2022/07/01 02:36:38;;;;;;;47.58;20.98;;;;;;;17.78;100.00;95003.16;5041873;28;20048;-66
2022/07/01 02:39:05;;;;;;;36.95;18.35;;;;;;;17.82;100.00;95023.72;5031062;28;20033;-66
2022/07/01 02:42:22;;;;;;;22.00;12.98;;;;;;;17.69;100.00;95010.06;5042906;28;20543;-66
2022/07/01 02:44:30;;;;;;;15.70;9.55;;;;;;;17.69;100.00;95025.88;5034713;28;20048;-66
2022/07/01 02:46:58;;;;;;;12.95;8.23;;;;;;;17.75;100.00;95034.53;5039464;28;20049;-66
2022/07/01 02:49:25;;;;;;;10.85;6.93;;;;;;;17.62;100.00;95020.13;5042879;28;20053;-66
2022/07/01 02:51:52;;;;;;;11.18;6.45;;;;;;;17.67;100.00;95037.75;5032464;28;20049;-66
2022/07/01 02:54:49;;;;;;;12.43;5.85;;;;;;;17.66;100.00;95036.94;5040616;28;20056;-66
2022/07/01 02:57:15;;;;;;;10.07;6.60;;;;;;;17.66;100.00;95036.94;5030413;28;20041;-66
2022/07/01 02:59:42;;;;;;;5.15;4.63;;;;;;;17.67;100.00;95043.81;5035003;28;20049;-66
2022/07/01 03:02:09;;;;;;;6.95;5.43;;;;;;;17.66;100.00;95050.13;5035011;28;20041;-65
2022/07/01 03:04:36;;;;;;;7.95;5.93;;;;;;;17.73;100.00;95050.59;5037270;28;20048;-66
2022/07/01 03:07:03;;;;;;;9.38;6.57;;;;;;;17.74;100.00;95049.56;5037362;28;20043;-65
2022/07/01 03:09:30;;;;;;;10.68;6.43;;;;;;;17.75;100.00;95053.78;5036680;28;20048;-67
2022/07/01 03:12:24;;;;;;;8.68;6.20;;;;;;;17.80;100.00;95052.19;5040975;28;20106;-65
2022/07/01 03:14:52;;;;;;;9.52;6.40;;;;;;;17.63;100.00;95049.88;5038664;28;20052;-65
2022/07/01 03:17:20;;;;;;;14.73;7.30;;;;;;;17.54;100.00;95039.13;5037159;28;20044;-65
2022/07/01 03:19:53;;;;;;;13.93;7.32;;;;;;;17.59;100.00;95044.34;5040463;28;20186;-65
2022/07/01 03:22:22;;;;;;;15.20;7.63;;;;;;;17.59;100.00;95057.50;5036521;28;20044;-66
2022/07/01 03:24:50;;;;;;;8.15;6.78;;;;;;;17.57;100.00;95059.63;5038463;28;20036;-65
2022/07/01 03:27:18;;;;;;;14.32;7.20;;;;;;;17.48;100.00;95045.44;5035206;28;20045;-66
2022/07/01 03:29:45;;;;;;;10.35;7.07;;;;;;;17.61;100.00;95060.69;5035578;28;20049;-66
2022/07/01 03:32:12;;;;;;;10.38;7.10;;;;;;;17.60;100.00;95059.09;5040491;28;20146;-66
2022/07/01 03:34:41;;;;;;;8.57;6.63;;;;;;;17.57;100.00;95057.00;5038901;28;20048;-65
2022/07/01 03:37:11;;;;;;;20.20;9.85;;;;;;;17.62;100.00;95067.53;5033688;28;20040;-65
2022/07/01 03:39:42;;;;;;;10.95;7.40;;;;;;;17.64;100.00;95070.66;5036844;28;20041;-66
2022/07/01 03:42:09;;;;;;;8.82;6.70;;;;;;;17.68;100.00;95068.28;5032529;28;20052;-66
2022/07/01 03:44:37;;;;;;;10.85;6.97;;;;;;;17.61;100.00;95065.97;5041217;28;20044;-66
2022/07/01 03:47:05;;;;;;;9.32;7.25;;;;;;;17.60;100.00;95067.00;5036999;28;20060;-65
2022/07/01 03:49:33;;;;;;;10.93;7.40;;;;;;;17.67;100.00;95070.13;5033140;28;20661;-66
2022/07/01 03:52:01;;;;;;;11.15;7.55;;;;;;;17.70;100.00;95071.44;5036682;28;20053;-66
2022/07/01 03:54:32;;;;;;;11.02;8.63;;;;;;;17.74;100.00;95073.28;5036026;28;20071;-66
2022/07/01 03:57:02;;;;;;;11.98;7.78;;;;;;;17.77;100.00;95072.75;5040289;28;20040;-66
2022/07/01 03:59:31;;;;;;;8.38;7.55;;;;;;;17.84;100.00;95074.28;5035825;28;20525;-66
2022/07/01 04:01:59;;;;;;;15.60;8.32;;;;;;;17.94;100.00;95069.00;5038137;28;20052;-66
2022/07/01 04:04:27;;;;;;;8.95;7.22;;;;;;;18.08;100.00;95075.25;5043343;28;20036;-66
2022/07/01 04:06:56;;;;;;;10.38;7.50;;;;;;;18.15;100.00;95086.28;5039857;28;20051;-66
2022/07/01 04:09:25;;;;;;;10.68;7.72;;;;;;;18.26;100.00;95075.69;5035221;28;20080;-66
2022/07/01 04:11:53;;;;;;;10.45;6.65;;;;;;;18.39;100.00;95079.56;5037516;28;21593;-66
2022/07/01 04:14:20;;;;;;;10.73;7.45;;;;;;;18.48;100.00;95078.69;5033481;28;20102;-66
2022/07/01 04:16:48;;;;;;;9.77;6.90;;;;;;;18.63;100.00;95083.06;5036091;28;20692;-66
2022/07/01 04:19:15;;;;;;;11.63;8.35;;;;;;;18.69;100.00;95083.81;5030429;28;20048;-65
2022/07/01 04:24:28;;;;;;;11.88;6.97;;;;;;;18.85;100.00;95082.69;5035732;28;20059;-65
2022/07/01 04:27:06;;;;;;;13.07;8.00;;;;;;;18.96;100.00;95087.84;5036818;28;20049;-65
2022/07/01 04:29:36;;;;;;;13.20;11.80;;;;;;;19.01;100.00;95085.19;5036128;28;20052;-65
2022/07/01 04:32:13;;;;;;;11.43;7.15;;;;;;;19.14;100.00;95087.19;5037838;28;20049;-65
2022/07/01 04:34:53;;;;;;;8.55;6.90;;;;;;;19.19;100.00;95084.47;5035522;28;20057;-65
2022/07/01 04:37:20;;;;;;;8.45;7.13;;;;;;;19.32;100.00;95090.97;5038949;28;20118;-65
2022/07/01 04:39:47;;;;;;;7.65;6.80;;;;;;;19.33;100.00;95095.16;5033702;28;21408;-65
2022/07/01 04:42:15;;;;;;;8.60;6.10;;;;;;;19.38;100.00;95095.13;5034147;28;20056;-65
2022/07/01 04:44:41;;;;;;;9.75;7.05;;;;;;;19.44;100.00;95082.66;5037381;28;20049;-65
2022/07/01 04:47:10;;;;;;;9.98;6.82;;;;;;;19.54;100.00;95087.84;5036578;28;20037;-66
2022/07/01 04:49:37;;;;;;;12.02;7.75;;;;;;;19.55;100.00;95094.66;5034263;28;20034;-65
2022/07/01 04:52:04;;;;;;;16.00;7.88;;;;;;;19.67;100.00;95097.72;5039377;28;20103;-67
2022/07/01 04:54:31;;;;;;;12.20;8.30;;;;;;;19.73;100.00;95089.72;5035866;28;20056;-65
2022/07/01 04:56:57;;;;;;;10.75;8.00;;;;;;;19.86;99.39;95089.06;5036490;28;20045;-65
2022/07/01 04:59:33;;;;;;;9.70;7.53;;;;;;;20.01;98.33;95088.88;5039904;28;20048;-65
2022/07/01 05:02:01;;;;;;;12.45;7.72;;;;;;;20.10;97.79;95088.25;5043200;28;20430;-65
2022/07/01 05:04:31;;;;;;;10.77;6.93;;;;;;;20.21;95.80;95084.41;5045448;28;20110;-65
2022/07/01 05:06:58;;;;;;;10.32;6.60;;;;;;;20.16;94.50;95102.97;5044068;28;20411;-65
2022/07/01 05:09:25;;;;;;;14.15;8.05;;;;;;;20.28;95.52;95095.41;5041122;28;20037;-65
2022/07/01 05:11:53;;;;;;;12.82;8.55;;;;;;;20.38;96.01;95100.56;5043814;28;20533;-66
2022/07/01 05:14:19;;;;;;;11.82;7.30;;;;;;;20.37;95.72;95099.00;5041379;28;20045;-65
2022/07/01 05:16:46;;;;;;;19.63;9.23;;;;;;;20.50;95.54;95107.28;5043846;28;20056;-65
2022/07/01 05:21:59;;;;;;;22.23;8.55;;;;;;;20.69;93.60;95099.34;5037311;28;20045;-65
2022/07/01 05:24:31;;;;;;;24.02;9.48;;;;;;;20.73;93.23;95105.66;5041625;28;20440;-66
2022/07/01 05:27:00;;;;;;;24.80;7.68;;;;;;;20.72;92.00;95104.84;5041965;28;20180;-65
2022/07/01 05:29:27;;;;;;;16.13;8.05;;;;;;;20.80;90.51;95101.56;5038502;28;20052;-65
2022/07/01 05:31:54;;;;;;;21.15;8.05;;;;;;;20.85;90.27;95103.34;5041406;28;20044;-66
2022/07/01 05:34:21;;;;;;;16.95;7.72;;;;;;;20.92;89.03;95093.19;5039556;28;20064;-65
2022/07/01 05:36:48;;;;;;;13.68;7.75;;;;;;;21.14;87.87;95104.97;5040593;28;20227;-66
2022/07/01 05:39:15;;;;;;;11.32;6.72;;;;;;;21.28;88.32;95105.03;5042662;28;20051;-66
2022/07/01 05:41:42;;;;;;;10.77;6.25;;;;;;;21.44;86.73;95108.97;5043105;28;20522;-66
2022/07/01 05:44:08;;;;;;;17.95;6.68;;;;;;;21.58;86.17;95109.78;5040528;28;20047;-65
2022/07/01 05:46:36;;;;;;;12.95;6.38;;;;;;;21.76;85.71;95110.78;5042036;28;20521;-66
2022/07/01 05:49:04;;;;;;;11.68;7.00;;;;;;;21.96;81.82;95109.59;5046704;28;20040;-66
2022/07/01 05:51:52;;;;;;;13.27;8.60;;;;;;;22.15;79.35;95103.41;5038768;28;20045;-66
2022/07/01 05:54:19;;;;;;;10.45;8.98;;;;;;;22.26;80.48;95102.13;5040194;28;20119;-66
2022/07/01 05:56:47;;;;;;;8.90;7.10;;;;;;;22.45;78.76;95103.84;5037481;28;20059;-66
2022/07/01 05:59:22;;;;;;;7.95;6.07;;;;;;;22.56;77.89;95109.69;5044388;28;20513;-65
2022/07/01 06:01:50;;;;;;;8.85;5.82;;;;;;;22.67;77.69;95111.84;5039026;28;20699;-66
2022/07/01 06:04:17;;;;;;;13.63;7.20;;;;;;;22.90;77.54;95103.88;5040518;28;20676;-65
2022/07/01 06:06:45;;;;;;;13.35;6.32;;;;;;;23.02;75.73;95112.06;5036909;28;20037;-66
2022/07/01 06:09:14;;;;;;;7.53;5.78;;;;;;;23.13;75.04;95111.88;5042196;28;20041;-66
2022/07/01 06:11:42;;;;;;;6.22;5.63;;;;;;;23.32;74.76;95115.09;5038695;28;20049;-66
2022/07/01 06:14:09;;;;;;;8.43;5.47;;;;;;;23.34;73.80;95123.56;5039615;28;20589;-66
2022/07/01 06:16:50;;;;;;;7.22;6.05;;;;;;;23.60;74.97;95109.59;5043200;28;20504;-66
2022/07/01 06:19:17;;;;;;;8.85;5.25;;;;;;;23.83;71.15;95113.78;5035353;28;20030;-66
2022/07/01 06:21:43;;;;;;;11.50;5.57;;;;;;;24.01;70.97;95116.50;5040735;28;20514;-66
2022/07/01 06:24:10;;;;;;;8.20;5.28;;;;;;;24.28;69.94;95122.66;5039119;28;20045;-66
2022/07/01 06:26:37;;;;;;;10.65;5.35;;;;;;;24.53;69.59;95105.94;5035059;28;20037;-66
2022/07/01 06:29:04;;;;;;;7.05;5.28;;;;;;;24.73;68.64;95117.06;5043596;28;20041;-66
2022/07/01 06:31:33;;;;;;;7.07;5.07;;;;;;;24.96;67.47;95115.81;5038246;28;20060;-66
2022/07/01 06:34:00;;;;;;;9.70;4.97;;;;;;;25.20;64.33;95117.16;5036308;28;20053;-66
2022/07/01 06:36:27;;;;;;;8.00;4.82;;;;;;;25.28;59.85;95111.06;5039807;28;20048;-66
2022/07/01 06:38:54;;;;;;;5.68;4.72;;;;;;;25.40;61.05;95118.41;5036881;28;20049;-66
2022/07/01 06:41:27;;;;;;;5.95;4.78;;;;;;;25.55;59.54;95119.75;5038432;28;20071;-66
2022/07/01 06:44:06;;;;;;;10.18;4.85;;;;;;;25.73;59.66;95115.94;5038387;28;20760;-66
2022/07/01 06:46:36;;;;;;;6.00;4.45;;;;;;;25.84;59.71;95115.56;5040894;28;20041;-66
2022/07/01 06:49:11;;;;;;;5.00;4.50;;;;;;;25.90;57.58;95103.63;5038894;28;20045;-66
2022/07/01 06:51:47;;;;;;;7.45;4.05;;;;;;;26.23;58.07;95111.00;5034801;28;20057;-66
2022/07/01 06:54:14;;;;;;;10.02;4.40;;;;;;;26.41;57.09;95109.75;5041538;28;20547;-66
2022/07/01 06:56:46;;;;;;;9.70;4.80;;;;;;;26.59;53.24;95112.31;5040780;28;20045;-66
2022/07/01 06:59:15;;;;;;;5.60;4.72;;;;;;;26.47;53.87;95113.81;5037590;28;20033;-66
2022/07/01 07:01:42;;;;;;;4.80;3.78;;;;;;;26.48;54.35;95112.69;5038631;28;20414;-66
2022/07/01 07:04:09;;;;;;;7.43;4.15;;;;;;;26.50;54.30;95113.16;5034167;28;20037;-66
2022/07/01 07:06:35;;;;;;;6.18;4.10;;;;;;;26.64;51.52;95114.81;5037136;28;20048;-67
2022/07/01 07:09:02;;;;;;;5.18;3.47;;;;;;;26.73;52.48;95107.50;5040451;28;20037;-67
2022/07/01 07:11:29;;;;;;;10.10;4.15;;;;;;;26.68;51.41;95121.84;5035610;28;20044;-67
2022/07/01 07:13:56;;;;;;;12.82;4.68;;;;;;;26.74;50.45;95116.31;5038496;28;20044;-66
2022/07/01 07:16:23;;;;;;;6.15;3.72;;;;;;;26.58;50.69;95122.22;5030381;28;20052;-66
2022/07/01 07:18:50;;;;;;;5.55;3.38;;;;;;;26.82;48.39;95116.22;5041123;28;20087;-67
2022/07/01 07:21:17;;;;;;;6.03;3.45;;;;;;;26.73;48.11;95109.41;5035674;28;20041;-66
2022/07/01 07:23:44;;;;;;;13.07;4.60;;;;;;;26.73;54.09;95117.44;5038136;28;20160;-67
2022/07/01 07:26:11;;;;;;;6.57;5.07;;;;;;;26.92;54.65;95114.25;5030680;28;20047;-67
2022/07/01 07:28:38;;;;;;;10.48;4.13;;;;;;;26.62;53.85;95111.69;5037117;28;20047;-66
2022/07/01 07:31:09;;;;;;;5.32;4.80;;;;;;;26.63;58.05;95116.72;5034643;28;20270;-66
2022/07/01 07:33:48;;;;;;;8.45;5.10;;;;;;;26.70;58.73;95108.16;5034934;28;20048;-66
2022/07/01 07:36:15;;;;;;;6.45;4.20;;;;;;;26.98;55.55;95118.31;5034413;28;20037;-67
2022/07/01 07:38:41;;;;;;;9.93;4.88;;;;;;;27.15;56.35;95123.47;5036292;28;20086;-67
2022/07/01 07:41:08;;;;;;;8.40;4.53;;;;;;;27.00;52.24;95122.22;5032213;28;20625;-67
2022/07/01 07:43:35;;;;;;;10.93;4.47;;;;;;;27.00;53.07;95116.09;5035173;28;20037;-67
2022/07/01 07:46:04;;;;;;;5.90;4.10;;;;;;;27.23;54.88;95109.25;5036721;28;20048;-67
2022/07/01 07:48:31;;;;;;;7.63;4.63;;;;;;;27.47;54.64;95113.13;5040760;28;20505;-66
2022/07/01 07:50:58;;;;;;;9.38;4.85;;;;;;;27.49;52.84;95115.47;5039546;28;20041;-67
2022/07/01 07:53:25;;;;;;;16.20;4.72;;;;;;;27.47;52.35;95107.78;5036321;28;20048;-66
2022/07/01 07:55:51;;;;;;;8.48;4.65;;;;;;;27.58;51.54;95108.88;5039309;28;20060;-67
2022/07/01 07:58:18;;;;;;;7.32;4.32;;;;;;;27.63;51.92;95106.00;5036625;28;20044;-67
2022/07/01 08:00:45;;;;;;;4.03;3.63;;;;;;;27.83;51.06;95108.91;5040115;28;20071;-67
2022/07/01 08:03:21;;;;;;;6.00;3.78;;;;;;;28.00;49.97;95108.72;5036585;28;20051;-67
2022/07/01 08:05:48;;;;;;;8.05;4.25;;;;;;;28.06;49.50;95105.81;5039961;28;20050;-67
2022/07/01 08:08:15;;;;;;;5.60;3.55;;;;;;;28.06;49.83;95105.81;5040392;28;20037;-67
2022/07/01 08:10:59;;;;;;;5.55;3.60;;;;;;;28.37;48.67;95111.34;5039178;28;20045;-67
2022/07/01 08:13:28;;;;;;;5.78;4.40;;;;;;;28.62;48.13;95110.56;5038774;28;20045;-67
2022/07/01 08:15:56;;;;;;;5.78;3.83;;;;;;;28.73;46.59;95112.41;5040240;28;20041;-66
2022/07/01 08:18:23;;;;;;;7.72;3.60;;;;;;;28.79;44.19;95110.25;5038248;28;20087;-67
2022/07/01 08:20:53;;;;;;;5.63;3.90;;;;;;;28.93;45.56;95109.88;5036713;28;20231;-67
2022/07/01 08:23:20;;;;;;;8.70;3.22;;;;;;;29.09;43.70;95108.00;5040829;28;20488;-67
2022/07/01 08:25:59;;;;;;;16.33;3.63;;;;;;;29.26;43.43;95106.97;5039792;28;20040;-67
2022/07/01 08:28:27;;;;;;;3.95;3.10;;;;;;;29.48;43.33;95108.28;5042737;28;20040;-68
2022/07/01 08:31:10;;;;;;;7.10;3.58;;;;;;;29.58;44.34;95108.88;5037170;28;20048;-67
2022/07/01 08:33:39;;;;;;;6.38;3.30;;;;;;;29.51;44.08;95115.63;5035228;28;20713;-67
2022/07/01 08:36:22;;;;;;;10.65;3.25;;;;;;;29.44;43.13;95102.03;5041942;28;20053;-67
2022/07/01 08:38:55;;;;;;;6.30;3.17;;;;;;;29.62;42.59;95113.22;5046908;28;20505;-68
2022/07/01 08:44:26;;;;;;;7.82;3.47;;;;;;;29.71;41.03;95099.59;5043957;28;21612;-67
2022/07/01 08:47:11;;;;;;;5.38;3.13;;;;;;;29.61;42.27;95100.16;5040288;28;20735;-67
2022/07/01 08:49:39;;;;;;;8.05;3.08;;;;;;;29.97;42.13;95106.38;5035894;28;20044;-67
2022/07/01 08:52:09;;;;;;;4.95;3.15;;;;;;;30.13;40.54;95109.81;5044941;28;20048;-67
2022/07/01 08:54:40;;;;;;;9.25;3.63;;;;;;;30.12;39.60;95113.63;5043196;28;20043;-67
2022/07/01 08:57:08;;;;;;;4.15;2.80;;;;;;;30.27;39.94;95099.41;5033877;28;20146;-67
2022/07/01 08:59:35;;;;;;;11.00;3.95;;;;;;;30.38;40.74;95104.22;5045040;28;20041;-67
2022/07/01 09:02:04;;;;;;;5.35;3.60;;;;;;;30.55;41.37;95098.47;5042651;28;20123;-67
2022/07/01 09:04:33;;;;;;;9.50;3.15;;;;;;;30.95;39.94;95100.03;5041119;28;20041;-67
2022/07/01 09:07:39;;;;;;;9.23;3.70;;;;;;;31.40;38.29;95098.56;5037276;28;20047;-67
2022/07/01 09:10:24;;;;;;;6.53;3.37;;;;;;;31.35;36.74;95090.78;5041296;28;20118;-67
2022/07/01 09:12:51;;;;;;;5.20;2.88;;;;;;;31.71;37.51;95096.78;5037738;28;20537;-67
2022/07/01 09:15:55;;;;;;;9.23;3.30;;;;;;;31.97;36.43;95100.63;5040734;28;20429;-67
2022/07/01 09:18:33;;;;;;;6.57;3.58;;;;;;;32.17;34.98;95102.09;5058303;28;20048;-67
2022/07/01 09:21:00;;;;;;;3.90;2.85;;;;;;;32.36;34.67;95097.75;5057370;28;20063;-67
2022/07/01 09:23:30;;;;;;;9.27;3.40;;;;;;;32.12;34.69;95099.72;5054343;28;20049;-66
2022/07/01 09:25:57;;;;;;;6.28;3.25;;;;;;;31.96;35.22;95102.56;5053238;28;20048;-67
2022/07/01 09:28:26;;;;;;;5.05;3.30;;;;;;;32.18;35.20;95102.91;5057122;28;20036;-67
2022/07/01 09:30:57;;;;;;;4.18;3.08;;;;;;;32.27;35.31;95099.94;5057382;28;20445;-67
2022/07/01 09:33:28;;;;;;;5.50;3.67;;;;;;;32.43;35.45;95092.47;5056181;28;20098;-67
2022/07/01 09:35:59;;;;;;;5.00;3.22;;;;;;;32.81;33.24;95103.34;5057693;28;20052;-67
2022/07/01 09:38:26;;;;;;;6.38;3.65;;;;;;;33.09;34.50;95100.19;5056031;28;20607;-67
2022/07/01 09:41:01;;;;;;;5.35;2.67;;;;;;;33.36;33.41;95092.00;5059532;28;20049;-67
2022/07/01 09:43:44;;;;;;;4.20;3.13;;;;;;;33.19;32.73;95101.47;5055497;28;20048;-67
2022/07/01 09:46:26;;;;;;;4.28;2.88;;;;;;;33.02;33.48;95100.09;5051924;28;20095;-66
2022/07/01 09:48:53;;;;;;;5.97;3.40;;;;;;;32.82;32.82;95092.19;5051578;28;20041;-66
2022/07/01 09:51:32;;;;;;;3.50;3.13;;;;;;;33.10;32.33;95090.97;5041529;28;20047;-66
2022/07/01 09:54:01;;;;;;;5.63;3.30;;;;;;;33.61;29.46;95093.00;5042504;28;20142;-66
2022/07/01 09:56:28;;;;;;;4.35;3.08;;;;;;;34.06;29.09;95085.63;5039818;28;20131;-67
2022/07/01 09:59:09;;;;;;;5.47;3.05;;;;;;;34.44;28.42;95080.84;5033881;28;20045;-67
2022/07/01 10:01:43;;;;;;;3.53;3.08;;;;;;;34.73;27.24;95086.41;5035425;28;20499;-67
2022/07/01 10:04:27;;;;;;;5.18;3.10;;;;;;;34.76;28.40;95082.94;5039384;28;20059;-67
2022/07/01 10:07:30;;;;;;;5.65;3.08;;;;;;;34.30;28.65;95080.78;5038534;28;20045;-67
2022/07/01 10:09:57;;;;;;;7.63;3.17;;;;;;;33.96;29.14;95077.44;5025918;28;20057;-67
2022/07/01 10:12:24;;;;;;;4.38;3.10;;;;;;;34.20;27.55;95084.22;5041495;28;20045;-68
2022/07/01 10:14:53;;;;;;;3.53;2.90;;;;;;;33.82;26.72;95086.25;5039540;28;20200;-67
2022/07/01 10:17:52;;;;;;;4.38;3.03;;;;;;;33.67;28.00;95075.34;5037989;28;20067;-67
2022/07/01 10:20:25;;;;;;;5.90;2.97;;;;;;;33.88;27.41;95074.69;5044961;28;20037;-67
2022/07/01 10:23:01;;;;;;;12.93;3.53;;;;;;;33.85;27.89;95074.69;5037968;28;20041;-67
2022/07/01 10:25:34;;;;;;;3.22;2.88;;;;;;;33.80;28.25;95072.31;5035377;28;20132;-67
2022/07/01 10:28:19;;;;;;;6.28;3.22;;;;;;;34.08;26.82;95072.50;5036175;28;20528;-67
2022/07/01 10:31:02;;;;;;;9.85;3.70;;;;;;;34.58;27.90;95066.63;5040909;28;20429;-68
2022/07/01 10:33:43;;;;;;;4.35;2.80;;;;;;;35.25;27.00;95080.00;5035523;28;20045;-67
2022/07/01 10:36:22;;;;;;;3.67;3.17;;;;;;;35.06;26.21;95067.56;5041541;28;20486;-68
2022/07/01 10:39:03;;;;;;;3.67;2.92;;;;;;;34.93;27.33;95062.50;5036930;28;20092;-67
2022/07/01 10:41:50;;;;;;;3.45;2.90;;;;;;;35.02;27.43;95052.13;5042367;28;20047;-67
2022/07/01 10:44:37;;;;;;;4.68;3.00;;;;;;;34.62;27.68;95055.81;5034649;28;20044;-68
2022/07/01 10:47:07;;;;;;;4.85;3.15;;;;;;;34.90;27.69;95049.75;5023298;28;20054;-67
2022/07/01 10:49:38;;;;;;;6.68;3.38;;;;;;;34.94;26.80;95049.78;5043029;28;20047;-67
2022/07/01 10:52:15;;;;;;;3.47;2.80;;;;;;;34.75;26.17;95053.56;5042543;28;20517;-67
2022/07/01 10:54:45;;;;;;;5.78;3.60;;;;;;;34.55;26.64;95047.69;5037363;28;20091;-67
2022/07/01 10:57:15;;;;;;;5.28;3.38;;;;;;;34.53;27.04;95044.59;5042577;28;20052;-66
2022/07/01 10:59:50;;;;;;;5.43;3.38;;;;;;;34.46;26.06;95048.78;5042001;28;20120;-67
2022/07/01 11:02:26;;;;;;;4.80;2.83;;;;;;;34.62;25.96;95028.78;5042747;28;21399;-67
2022/07/01 11:05:22;;;;;;;5.40;2.95;;;;;;;35.17;25.95;95047.50;5042057;28;20051;-67
2022/07/01 11:07:48;;;;;;;6.32;3.58;;;;;;;35.56;23.88;95045.97;5041547;28;20029;-67
2022/07/01 11:10:18;;;;;;;7.55;3.22;;;;;;;36.03;23.50;95037.84;5039379;28;20106;-67
2022/07/01 11:12:57;;;;;;;3.90;3.13;;;;;;;36.42;22.85;95050.53;5043462;28;20509;-67
2022/07/01 11:16:04;;;;;;;5.20;3.08;;;;;;;35.88;22.21;95040.56;5041704;28;20037;-67
2022/07/01 11:18:40;;;;;;;5.55;3.25;;;;;;;36.55;21.76;95044.28;5040034;28;20644;-67
2022/07/01 11:21:09;;;;;;;4.43;4.03;;;;;;;37.10;21.08;95045.56;5040641;28;20045;-67
2022/07/01 11:23:37;;;;;;;4.90;3.30;;;;;;;37.28;20.08;95044.72;5043179;28;20096;-67
2022/07/01 11:26:24;;;;;;;3.88;3.42;;;;;;;37.19;20.99;95041.69;5040991;28;20052;-68
2022/07/01 11:28:52;;;;;;;4.80;3.35;;;;;;;37.88;20.97;95038.00;5041182;28;20313;-68
2022/07/01 11:31:30;;;;;;;2.42;2.22;;;;;;;37.98;20.25;95041.03;5042367;28;20056;-68
2022/07/01 11:33:57;;;;;;;2.35;2.15;;;;;;;37.66;20.32;95042.09;5039134;28;20049;-68
2022/07/01 11:39:22;;;;;;;2.63;1.85;;;;;;;37.17;19.49;95044.00;5041071;28;20033;-68
2022/07/01 11:42:11;;;;;;;7.38;2.20;;;;;;;37.11;20.89;95047.13;5053117;28;20037;-68
2022/07/01 11:44:39;;;;;;;3.22;2.25;;;;;;;36.96;21.80;95037.50;5034056;28;20045;-68
2022/07/01 11:47:09;;;;;;;3.00;1.80;;;;;;;36.61;23.91;95041.16;5042409;28;20043;-68
2022/07/01 11:49:47;;;;;;;4.20;2.20;;;;;;;36.43;25.39;95036.59;5032451;28;20773;-68
2022/07/01 11:52:18;;;;;;;5.90;2.50;;;;;;;36.23;25.74;95033.56;5037511;28;20055;-68
2022/07/01 11:54:51;;;;;;;5.80;2.53;;;;;;;36.08;29.19;95026.59;5036690;28;20506;-67
2022/07/01 11:57:28;;;;;;;10.18;3.67;;;;;;;35.86;36.44;95034.78;5033628;28;20045;-67